Pagrindinis puslapis
METAR-TAF:

METAR-TAF

Oro uostai :

Ljungbyhed, Švedija

platuma: 56-04N, ilguma: 013-12E, Aukštis: 43 m

Dabartinis oras

Ataskaita buvo paskelbta 35 minutes, ne 13:50 UTC
Vėjas 12 kt iš Šiaurės Vakarų
Temperatūra 8°C
Drėgmė 42%
Slėgis 1016 hPa
Matomumas 10 km arba daugiau

METAR: ESTL 201350Z AUTO 32012KT 9999 FEW052/// 08/M04 Q1016

Laikas: 16:25 (14:25 UTC)

Prognozė

Ataskaita buvo paskelbta 27 valandos ir 10 minutes, ne 11:15 UTC
Prognozė galioja nuo 19 metu 12 UTC su 19 metu 15 UTC
Vėjas 8 kt iš Rytų
Matomumas 10 km arba daugiau
Su prošvaistėmis ne aukštis 1000 ft
lietus
Tapsmas
nuo 19 metu 12 UTC su 19 metu 14 UTC
Išsisklaidę debesys ne aukštis 2000 ft

TAF: ESTL 191115Z 1912/1915 09008KT 9999 -RA BKN010 BECMG 1912/1914 SCT020

Orai ataskaitas ir orų prognozės (METAR, TAF).

turimą stotys yra geltonos ir raudonos taškus žemėlapyje.

Perkelti pele per norėdami pamatyti stoties vardą.

Tada spustelėkite, norėdami matyti oro stebėjimo ir prognozės.

Norėdami pakeisti žemėlapį: spustelėkite ant žalios mygtukų su juodo kryžiaus žemyn,; žalią mygtuką su brūkšneliu, jei norite nutolinti; arba žalių rodyklių gretimoms žemėlapius.


METAR-TAF: